Time,TemperatureF,DewpointF,PressureIn,WindDirection,WindDirectionDegrees,WindSpeedMPH,WindSpeedGustMPH,Humidity,HourlyPrecipIn,Conditions,Clouds,dailyrainin,SoftwareType,DateUTC
2013-04-01 00:00:00,37.3,33.2,29.82,SSE,168,2.3,2.3,85,0.02,RA,,0.00,WeatherDisplay:10.37,2013-04-01 04:00:00,
2013-04-01 00:05:00,37.6,33.5,29.82,SSE,166,0.0,0.0,85,0.02,OVC,,0.00,WeatherDisplay:10.37,2013-04-01 04:05:00,
2013-04-01 00:10:00,37.3,33.2,29.82,SSE,166,0.0,0.1,85,0.03,RA,,0.01,WeatherDisplay:10.37,2013-04-01 04:10:00,
2013-04-01 00:12:00,37.3,33.2,29.82,SSE,166,2.3,2.3,85,0.03,OVC,,0.02,WeatherDisplay:10.37,2013-04-01 04:12:00,
2013-04-01 00:17:00,37.4,33.3,29.82,SE,146,1.1,1.1,85,0.04,OVC,,0.02,WeatherDisplay:10.37,2013-04-01 04:17:00,
2013-04-01 00:22:00,37.5,33.4,29.82,ESE,105,3.5,3.5,85,0.00,OVC,,0.03,WeatherDisplay:10.37,2013-04-01 04:22:00,
2013-04-01 00:27:00,37.4,33.3,29.82,ESE,105,0.0,0.0,85,0.01,OVC,,0.04,WeatherDisplay:10.37,2013-04-01 04:27:00,
2013-04-01 00:32:00,37.5,33.7,29.78,ESE,105,0.0,0.0,86,0.02,-RA,,0.05,WeatherDisplay:10.37,2013-04-01 04:32:00,
2013-04-01 00:38:00,37.4,33.6,29.78,ESE,105,0.0,0.0,86,0.01,-RA,,0.06,WeatherDisplay:10.37,2013-04-01 04:38:00,
2013-04-01 00:43:00,37.3,33.5,29.78,ESE,105,1.1,1.1,86,0.02,-RA,,0.06,WeatherDisplay:10.37,2013-04-01 04:43:00,
2013-04-01 00:48:00,37.3,33.5,29.78,ESE,105,3.5,3.5,86,0.02,-RA,,0.06,WeatherDisplay:10.37,2013-04-01 04:48:00,
2013-04-01 00:53:00,37.6,33.8,29.78,ESE,104,0.0,0.0,86,0.03,-RA,,0.07,WeatherDisplay:10.37,2013-04-01 04:53:00,
2013-04-01 00:58:00,37.6,33.8,29.78,East,97,3.5,3.5,86,0.02,-RA,,0.07,WeatherDisplay:10.37,2013-04-01 04:58:00,
2013-04-01 01:03:00,37.7,33.9,29.78,East,94,2.3,2.3,86,0.08,-RA,,0.08,WeatherDisplay:10.37,2013-04-01 05:03:00,
2013-04-01 01:08:00,37.9,34.1,29.78,East,99,2.3,2.3,86,0.07,-RA,,0.08,WeatherDisplay:10.37,2013-04-01 05:08:00,
2013-04-01 01:13:00,37.9,34.1,29.78,NE,38,2.3,2.3,86,0.06,-RA,,0.08,WeatherDisplay:10.37,2013-04-01 05:13:00,
2013-04-01 01:18:00,37.5,33.7,29.78,NE,40,0.0,0.0,86,0.06,-RA,,0.08,WeatherDisplay:10.37,2013-04-01 05:18:00,
2013-04-01 01:23:00,37.6,33.8,29.78,NE,40,0.0,0.0,86,0.05,-RA,,0.08,WeatherDisplay:10.37,2013-04-01 05:23:00,
2013-04-01 01:28:00,37.6,33.8,29.78,NE,40,0.0,0.0,86,0.04,-RA,,0.08,WeatherDisplay:10.37,2013-04-01 05:28:00,
2013-04-01 01:33:00,37.4,35.3,29.76,NE,41,1.1,1.1,92,0.04,OVC,,0.09,WeatherDisplay:10.37,2013-04-01 05:33:00,
2013-04-01 01:38:00,37.3,35.2,29.76,NE,41,0.0,0.0,92,0.04,OVC,,0.09,WeatherDisplay:10.37,2013-04-01 05:38:00,
2013-04-01 01:43:00,37.3,35.2,29.76,NE,40,2.3,0.0,92,0.03,OVC,,0.09,WeatherDisplay:10.37,2013-04-01 05:43:00,
2013-04-01 01:48:00,37.3,35.2,29.76,NE,40,1.0,1.0,92,0.04,RA,,0.10,WeatherDisplay:10.37,2013-04-01 05:48:00,
2013-04-01 01:53:00,37.4,35.3,29.76,ENE,74,3.5,3.5,92,0.03,OVC,,0.10,WeatherDisplay:10.37,2013-04-01 05:53:00,
2013-04-01 01:58:00,37.1,35.0,29.76,ENE,70,1.1,1.1,92,0.04,RA,,0.11,WeatherDisplay:10.37,2013-04-01 05:58:00,
2013-04-01 02:03:00,36.8,34.7,29.76,ENE,71,3.5,3.5,92,0.03,OVC,,0.11,WeatherDisplay:10.37,2013-04-01 06:03:00,
2013-04-01 02:08:00,36.7,34.6,29.76,ENE,71,3.5,3.5,92,0.04,OVC,,0.12,WeatherDisplay:10.37,2013-04-01 06:08:00,
2013-04-01 02:13:00,36.8,35.8,29.71,ENE,71,2.3,2.3,96,0.05,RA,,0.13,WeatherDisplay:10.37,2013-04-01 06:13:00,
2013-04-01 02:18:00,36.6,35.6,29.71,ENE,71,1.1,1.1,96,0.06,RA,,0.14,WeatherDisplay:10.37,2013-04-01 06:18:00,
2013-04-01 02:23:00,36.5,35.5,29.71,ENE,71,0.0,0.0,96,0.06,OVC,,0.15,WeatherDisplay:10.37,2013-04-01 06:23:00,
2013-04-01 02:28:00,36.4,35.4,29.71,ENE,71,1.1,1.1,96,0.07,OVC,,0.16,WeatherDisplay:10.37,2013-04-01 06:28:00,
2013-04-01 02:33:00,36.5,36.5,29.68,ENE,71,2.3,2.3,100,0.07,OVC,,0.16,WeatherDisplay:10.37,2013-04-01 06:33:00,
2013-04-01 02:38:00,36.5,36.5,29.68,ENE,71,1.1,1.1,100,0.08,RA,,0.17,WeatherDisplay:10.37,2013-04-01 06:38:00,
2013-04-01 02:43:00,36.4,36.4,29.68,ENE,71,1.1,1.1,100,0.09,RA,,0.18,WeatherDisplay:10.37,2013-04-01 06:43:00,
2013-04-01 02:48:00,36.3,36.3,29.68,ENE,71,2.3,2.3,100,0.08,OVC,,0.18,WeatherDisplay:10.37,2013-04-01 06:48:00,
2013-04-01 02:53:00,36.4,36.4,29.68,ENE,71,2.3,2.3,100,0.09,OVC,,0.19,WeatherDisplay:10.37,2013-04-01 06:53:00,
2013-04-01 02:58:00,36.5,36.5,29.68,ENE,71,3.5,3.5,100,0.09,OVC,,0.20,WeatherDisplay:10.37,2013-04-01 06:58:00,
2013-04-01 03:03:00,36.5,36.5,29.68,ENE,66,2.3,2.3,100,0.09,OVC,,0.21,WeatherDisplay:10.37,2013-04-01 07:03:00,
2013-04-01 03:08:00,36.4,36.4,29.68,ENE,65,3.0,3.0,100,0.09,OVC,,0.21,WeatherDisplay:10.37,2013-04-01 07:08:00,
2013-04-01 03:13:00,36.5,35.5,29.65,NE,41,3.5,3.5,96,0.09,-RA,,0.22,WeatherDisplay:10.37,2013-04-01 07:13:00,
2013-04-01 03:18:00,36.4,35.4,29.65,NE,40,3.5,3.5,96,0.08,-RA,,0.22,WeatherDisplay:10.37,2013-04-01 07:18:00,
2013-04-01 03:23:00,36.3,35.3,29.65,NE,36,2.3,2.3,96,0.09,-RA,,0.23,WeatherDisplay:10.37,2013-04-01 07:23:00,
2013-04-01 03:28:00,36.1,35.1,29.65,NE,36,3.5,3.5,96,0.08,-RA,,0.23,WeatherDisplay:10.37,2013-04-01 07:28:00,
2013-04-01 03:33:00,36.0,35.0,29.65,NE,36,3.5,3.5,96,0.08,-RA,,0.24,WeatherDisplay:10.37,2013-04-01 07:33:00,
2013-04-01 03:38:00,35.8,34.8,29.65,NNE,25,5.0,5.0,96,0.07,-RA,,0.24,WeatherDisplay:10.37,2013-04-01 07:38:00,
2013-04-01 03:43:00,35.7,34.7,29.65,NNE,24,3.5,3.5,96,0.06,-RA,,0.24,WeatherDisplay:10.37,2013-04-01 07:43:00,
2013-04-01 03:48:00,35.6,34.6,29.65,NNE,22,3.5,3.5,96,0.06,-RA,,0.25,WeatherDisplay:10.37,2013-04-01 07:48:00,
2013-04-01 03:53:00,35.5,34.5,29.65,NNE,18,3.5,4.4,96,0.06,-RA,,0.25,WeatherDisplay:10.37,2013-04-01 07:53:00,
2013-04-01 03:58:00,35.5,34.5,29.65,NNE,25,4.0,4.0,96,0.05,-RA,,0.25,WeatherDisplay:10.37,2013-04-01 07:58:00,
2013-04-01 04:03:00,35.4,34.4,29.65,NNE,15,6.9,6.9,96,0.06,-RA,,0.26,WeatherDisplay:10.37,2013-04-01 08:03:00,
2013-04-01 04:08:00,35.4,34.4,29.65,NNE,15,4.6,4.6,96,0.05,-RA,,0.26,WeatherDisplay:10.37,2013-04-01 08:08:00,
2013-04-01 04:13:00,35.4,34.4,29.61,NNE,13,3.5,3.5,96,0.04,-RA,,0.26,WeatherDisplay:10.37,2013-04-01 08:13:00,
2013-04-01 04:18:00,35.3,34.3,29.61,NNE,13,3.5,3.5,96,0.04,-RA,,0.26,WeatherDisplay:10.37,2013-04-01 08:18:00,
2013-04-01 04:23:00,35.3,34.3,29.61,NNE,22,4.6,4.6,96,0.04,-RA,,0.27,WeatherDisplay:10.37,2013-04-01 08:23:00,
2013-04-01 04:28:00,35.4,34.4,29.61,NNE,22,1.0,1.0,96,0.04,-RA,,0.27,WeatherDisplay:10.37,2013-04-01 08:28:00,
2013-04-01 04:33:00,35.3,35.3,29.60,NNE,22,2.3,2.3,100,0.03,-RA,,0.27,WeatherDisplay:10.37,2013-04-01 08:33:00,
2013-04-01 04:38:00,35.3,35.3,29.60,NNE,22,2.3,2.3,100,0.03,-RA,,0.27,WeatherDisplay:10.37,2013-04-01 08:38:00,
2013-04-01 04:43:00,35.3,35.3,29.60,NNE,20,5.0,5.0,100,0.04,-RA,,0.28,WeatherDisplay:10.37,2013-04-01 08:43:00,
2013-04-01 04:48:00,35.2,35.2,29.60,NNE,14,3.5,3.5,100,0.03,-RA,,0.28,WeatherDisplay:10.37,2013-04-01 08:48:00,
2013-04-01 04:53:00,35.2,35.2,29.59,NNE,20,3.5,3.5,100,0.03,-RA,,0.28,WeatherDisplay:10.37,2013-04-01 08:53:00,
2013-04-01 04:58:00,35.1,35.1,29.59,NNE,20,2.3,2.3,100,0.03,-RA,,0.28,WeatherDisplay:10.37,2013-04-01 08:58:00,
2013-04-01 05:03:00,35.1,35.1,29.59,NNE,20,2.3,2.3,100,0.02,-RA,,0.28,WeatherDisplay:10.37,2013-04-01 09:03:00,
2013-04-01 05:08:00,35.1,35.1,29.59,NNE,20,1.1,1.1,100,0.02,-RA,,0.28,WeatherDisplay:10.37,2013-04-01 09:08:00,
2013-04-01 05:13:00,34.9,34.9,29.59,NNE,20,2.3,2.3,100,0.02,-RA,,0.28,WeatherDisplay:10.37,2013-04-01 09:13:00,
2013-04-01 05:18:00,34.9,34.9,29.59,NNE,20,3.5,3.5,100,0.02,-RA,,0.28,WeatherDisplay:10.37,2013-04-01 09:18:00,
2013-04-01 05:23:00,34.9,34.9,29.59,NNE,20,3.5,3.5,100,0.01,-RA,,0.28,WeatherDisplay:10.37,2013-04-01 09:23:00,
2013-04-01 05:28:00,34.9,34.9,29.59,NNE,20,0.0,0.0,100,0.01,-RA,,0.28,WeatherDisplay:10.37,2013-04-01 09:28:00,
2013-04-01 05:33:00,34.9,33.9,29.59,NNE,20,1.1,1.1,96,0.01,-RA,,0.28,WeatherDisplay:10.37,2013-04-01 09:33:00,
2013-04-01 05:38:00,34.8,33.8,29.59,NNE,20,1.1,1.1,96,0.01,-RA,,0.28,WeatherDisplay:10.37,2013-04-01 09:38:00,
2013-04-01 05:43:00,34.8,33.8,29.59,NNE,20,0.0,0.0,96,0.00,-RA,,0.28,WeatherDisplay:10.37,2013-04-01 09:43:00,
2013-04-01 05:48:00,34.8,33.8,29.59,NNE,20,1.0,0.0,96,0.00,-RA,,0.28,WeatherDisplay:10.37,2013-04-01 09:48:00,
2013-04-01 05:53:00,35.0,35.0,29.59,NNE,20,0.0,0.0,100,0.00,OVC,,0.28,WeatherDisplay:10.37,2013-04-01 09:53:00,
2013-04-01 05:58:00,34.9,34.9,29.59,NNE,20,0.0,0.0,100,0.00,OVC,,0.28,WeatherDisplay:10.37,2013-04-01 09:58:00,
2013-04-01 06:04:00,35.0,35.0,29.59,NNE,20,2.3,2.3,100,0.00,OVC,,0.28,WeatherDisplay:10.37,2013-04-01 10:04:00,
2013-04-01 06:09:00,34.9,34.9,29.59,NNE,20,1.1,0.0,100,0.00,OVC,,0.28,WeatherDisplay:10.37,2013-04-01 10:09:00,
2013-04-01 06:14:00,34.4,33.1,29.60,NNE,20,1.1,0.0,95,0.00,OVC,,0.28,WeatherDisplay:10.37,2013-04-01 10:14:00,
2013-04-01 06:19:00,34.1,32.8,29.60,NNE,20,0.0,0.0,95,0.00,OVC,,0.28,WeatherDisplay:10.37,2013-04-01 10:19:00,
2013-04-01 06:24:00,34.2,32.9,29.60,NNE,20,0.0,0.0,95,0.00,OVC,,0.28,WeatherDisplay:10.37,2013-04-01 10:24:00,
2013-04-01 06:29:00,34.3,33.0,29.60,NNE,20,0.0,0.0,95,0.00,OVC,,0.28,WeatherDisplay:10.37,2013-04-01 10:29:00,
2013-04-01 06:34:00,34.4,33.1,29.60,NNE,20,0.0,0.0,95,0.00,OVC,,0.28,WeatherDisplay:10.37,2013-04-01 10:34:00,
2013-04-01 06:39:00,34.2,32.9,29.60,NNE,20,0.0,0.0,95,0.00,OVC,,0.28,WeatherDisplay:10.37,2013-04-01 10:39:00,
2013-04-01 06:44:00,34.0,32.7,29.60,NNE,20,0.0,0.0,95,0.00,OVC,,0.28,WeatherDisplay:10.37,2013-04-01 10:44:00,
2013-04-01 06:49:00,34.1,32.8,29.60,NNE,20,0.0,0.0,95,0.00,OVC,,0.28,WeatherDisplay:10.37,2013-04-01 10:49:00,
2013-04-01 06:54:00,34.1,32.8,29.60,NNE,20,0.0,0.0,95,0.00,OVC,,0.28,WeatherDisplay:10.37,2013-04-01 10:54:00,
2013-04-01 06:59:00,34.0,32.7,29.60,NNE,20,0.0,0.0,95,0.00,OVC,,0.28,WeatherDisplay:10.37,2013-04-01 10:59:00,
2013-04-01 07:04:00,34.1,32.8,29.60,NNE,20,0.0,0.0,95,0.00,OVC,,0.28,WeatherDisplay:10.37,2013-04-01 11:04:00,
2013-04-01 07:09:00,34.1,32.8,29.60,NNE,20,0.0,0.0,95,0.00,OVC,,0.28,WeatherDisplay:10.37,2013-04-01 11:09:00,
2013-04-01 07:14:00,34.0,33.0,29.62,NNE,20,0.0,0.0,96,0.00,-RA,,0.28,WeatherDisplay:10.37,2013-04-01 11:14:00,
2013-04-01 07:19:00,34.0,33.0,29.62,NNE,20,0.0,0.0,96,0.00,-RA,,0.28,WeatherDisplay:10.37,2013-04-01 11:19:00,
2013-04-01 07:24:00,34.3,33.3,29.62,NNE,20,0.0,0.0,96,0.00,-RA,,0.28,WeatherDisplay:10.37,2013-04-01 11:24:00,
2013-04-01 07:29:00,34.5,33.5,29.62,NNE,20,0.0,0.0,96,0.00,-RA,,0.28,WeatherDisplay:10.37,2013-04-01 11:29:00,
2013-04-01 07:34:00,34.6,34.6,29.63,NNE,20,0.0,0.0,100,0.00,OVC,,0.28,WeatherDisplay:10.37,2013-04-01 11:34:00,
2013-04-01 07:39:00,34.6,34.6,29.63,NNE,20,0.0,0.0,100,0.00,OVC,,0.28,WeatherDisplay:10.37,2013-04-01 11:39:00,
2013-04-01 07:44:00,34.7,34.7,29.63,NNE,20,0.0,0.0,100,0.00,OVC,,0.28,WeatherDisplay:10.37,2013-04-01 11:44:00,
2013-04-01 07:49:00,34.9,34.9,29.63,NNE,20,0.0,0.0,100,0.00,OVC,,0.28,WeatherDisplay:10.37,2013-04-01 11:49:00,
2013-04-01 07:54:00,35.2,35.2,29.63,NNE,20,0.0,0.0,100,0.00,OVC,,0.28,WeatherDisplay:10.37,2013-04-01 11:54:00,
2013-04-01 07:59:00,35.2,35.2,29.63,NNE,20,0.0,0.0,100,0.00,OVC,,0.28,WeatherDisplay:10.37,2013-04-01 11:59:00,
2013-04-01 08:04:00,34.7,34.7,29.63,NNE,20,0.0,0.0,100,0.01,RA,,0.29,WeatherDisplay:10.37,2013-04-01 12:04:00,
2013-04-01 08:09:00,35.0,35.0,29.63,NNE,20,0.0,0.0,100,0.01,OVC,,0.29,WeatherDisplay:10.37,2013-04-01 12:09:00,
2013-04-01 08:14:00,35.0,33.2,29.62,NNE,20,0.0,0.0,93,0.01,OVC,,0.29,WeatherDisplay:10.37,2013-04-01 12:14:00,
2013-04-01 08:19:00,35.3,33.5,29.62,NNE,20,0.0,0.0,93,0.01,OVC,,0.29,WeatherDisplay:10.37,2013-04-01 12:19:00,
2013-04-01 08:24:00,35.7,33.8,29.62,NNE,20,0.0,0.0,93,0.00,OVC,,0.29,WeatherDisplay:10.37,2013-04-01 12:24:00,
2013-04-01 08:29:00,36.0,34.2,29.62,NNE,20,0.0,0.0,93,0.01,OVC,,0.29,WeatherDisplay:10.37,2013-04-01 12:29:00,
2013-04-01 08:34:00,36.4,34.6,29.62,NNE,20,0.0,0.0,93,0.00,OVC,,0.29,WeatherDisplay:10.37,2013-04-01 12:34:00,
2013-04-01 08:39:00,36.5,34.7,29.62,NNE,20,0.0,0.0,93,0.01,OVC,,0.29,WeatherDisplay:10.37,2013-04-01 12:39:00,
2013-04-01 08:44:00,36.8,34.9,29.62,NNE,20,0.0,1.0,93,0.00,OVC,,0.29,WeatherDisplay:10.37,2013-04-01 12:44:00,
2013-04-01 08:49:00,37.0,35.2,29.62,NNE,20,0.0,0.0,93,0.01,OVC,,0.29,WeatherDisplay:10.37,2013-04-01 12:49:00,
2013-04-01 08:54:00,37.3,35.5,29.62,NNE,20,0.0,0.0,93,0.00,OVC,,0.29,WeatherDisplay:10.37,2013-04-01 12:54:00,
2013-04-01 08:59:00,36.7,34.8,29.62,NNE,20,1.0,2.0,93,0.00,OVC,,0.29,WeatherDisplay:10.37,2013-04-01 12:59:00,
2013-04-01 09:04:00,37.1,35.3,29.62,NNE,20,1.0,3.0,93,0.00,OVC,,0.29,WeatherDisplay:10.37,2013-04-01 13:04:00,
2013-04-01 09:09:00,37.4,35.6,29.62,NNE,20,2.3,2.3,93,0.00,OVC,,0.29,WeatherDisplay:10.37,2013-04-01 13:09:00,
2013-04-01 09:14:00,38.1,36.0,29.61,NNE,20,0.0,1.0,92,0.00,OVC,,0.29,WeatherDisplay:10.37,2013-04-01 13:14:00,
2013-04-01 09:19:00,38.7,36.6,29.61,NNE,20,1.1,1.1,92,0.00,OVC,,0.29,WeatherDisplay:10.37,2013-04-01 13:19:00,
2013-04-01 09:24:00,39.5,37.4,29.61,NNE,20,0.0,2.0,92,0.00,OVC,,0.29,WeatherDisplay:10.37,2013-04-01 13:24:00,
2013-04-01 09:29:00,39.3,37.2,29.61,NNE,20,2.3,2.3,92,0.00,OVC,,0.29,WeatherDisplay:10.37,2013-04-01 13:29:00,
2013-04-01 09:34:00,40.1,36.3,29.60,NNE,20,0.0,1.0,86,0.00,OVC,,0.29,WeatherDisplay:10.37,2013-04-01 13:34:00,
2013-04-01 09:39:00,40.2,36.3,29.60,NNE,20,0.0,0.0,86,0.00,OVC,,0.29,WeatherDisplay:10.37,2013-04-01 13:39:00,
2013-04-01 09:44:00,40.9,37.0,29.60,NNE,20,0.0,2.0,86,0.00,OVC,,0.29,WeatherDisplay:10.37,2013-04-01 13:44:00,
2013-04-01 09:49:00,40.4,36.5,29.60,NNE,20,0.0,0.4,86,0.00,OVC,,0.29,WeatherDisplay:10.37,2013-04-01 13:49:00,
2013-04-01 09:54:00,40.6,36.7,29.60,NNE,20,0.0,1.0,86,0.00,BKN,,0.29,WeatherDisplay:10.37,2013-04-01 13:54:00,
2013-04-01 09:59:00,40.7,36.8,29.60,NNE,20,0.0,1.0,86,0.00,BKN,,0.29,WeatherDisplay:10.37,2013-04-01 13:59:00,
2013-04-01 10:04:00,41.7,37.8,29.60,NNE,20,0.0,0.0,86,0.00,BKN,,0.29,WeatherDisplay:10.37,2013-04-01 14:04:00,
2013-04-01 10:09:00,41.9,38.0,29.60,NNE,20,1.1,0.0,86,0.00,BKN,,0.29,WeatherDisplay:10.37,2013-04-01 14:09:00,
2013-04-01 10:14:00,41.1,36.9,29.60,NNE,20,0.0,2.0,85,0.00,BKN,,0.29,WeatherDisplay:10.37,2013-04-01 14:14:00,
2013-04-01 10:19:00,41.0,36.8,29.60,NNE,20,1.1,0.0,85,0.00,BKN,,0.29,WeatherDisplay:10.37,2013-04-01 14:19:00,
2013-04-01 10:24:00,42.5,38.3,29.60,NNE,20,0.0,1.0,85,0.00,BKN,,0.29,WeatherDisplay:10.37,2013-04-01 14:24:00,
2013-04-01 10:29:00,42.9,38.7,29.60,NNE,20,0.0,0.1,85,0.00,BKN,,0.29,WeatherDisplay:10.37,2013-04-01 14:29:00,
2013-04-01 10:34:00,43.3,39.1,29.60,NNE,25,1.0,3.0,85,0.00,BKN,,0.29,WeatherDisplay:10.37,2013-04-01 14:34:00,
2013-04-01 10:39:00,43.5,39.3,29.60,NE,53,2.0,2.0,85,0.00,BKN,,0.29,WeatherDisplay:10.37,2013-04-01 14:39:00,
2013-04-01 10:44:00,43.5,39.3,29.60,NE,51,0.0,2.0,85,0.00,BKN,,0.29,WeatherDisplay:10.37,2013-04-01 14:44:00,
2013-04-01 10:49:00,43.9,39.7,29.60,NE,48,0.0,0.1,85,0.00,BKN,,0.29,WeatherDisplay:10.37,2013-04-01 14:49:00,
2013-04-01 10:54:00,43.6,36.2,29.60,NE,48,0.0,1.0,75,0.00,BKN,,0.29,WeatherDisplay:10.37,2013-04-01 14:54:00,
2013-04-01 10:59:00,43.4,36.0,29.60,South,182,2.3,2.3,75,0.00,BKN,,0.29,WeatherDisplay:10.37,2013-04-01 14:59:00,
2013-04-01 11:04:00,46.1,38.7,29.60,South,186,0.0,3.0,75,0.00,BKN,,0.29,WeatherDisplay:10.37,2013-04-01 15:04:00,
2013-04-01 11:09:00,45.6,38.1,29.60,SW,227,1.1,1.1,75,0.00,BKN,,0.29,WeatherDisplay:10.37,2013-04-01 15:09:00,
2013-04-01 11:14:00,46.5,35.3,29.58,SW,223,1.0,4.0,65,0.00,FEW,,0.29,WeatherDisplay:10.37,2013-04-01 15:14:00,
2013-04-01 11:19:00,45.5,34.4,29.58,WSW,250,3.5,3.5,65,0.00,FEW,,0.29,WeatherDisplay:10.37,2013-04-01 15:19:00,
2013-04-01 11:24:00,47.4,36.2,29.58,West,261,2.3,2.3,65,0.00,FEW,,0.29,WeatherDisplay:10.37,2013-04-01 15:24:00,
2013-04-01 11:29:00,46.0,34.9,29.58,SE,143,3.5,3.5,65,0.00,FEW,,0.29,WeatherDisplay:10.37,2013-04-01 15:29:00,
2013-04-01 11:34:00,46.0,34.8,29.58,South,189,1.0,3.0,65,0.00,FEW,,0.29,WeatherDisplay:10.37,2013-04-01 15:34:00,
2013-04-01 11:39:00,46.0,34.9,29.58,SSE,159,2.3,2.3,65,0.00,FEW,,0.29,WeatherDisplay:10.37,2013-04-01 15:39:00,
2013-04-01 11:44:00,45.2,34.1,29.58,SSE,159,0.0,1.0,65,0.00,FEW,,0.29,WeatherDisplay:10.37,2013-04-01 15:44:00,
2013-04-01 11:49:00,46.2,35.1,29.58,SSE,159,1.1,0.0,65,0.00,FEW,,0.29,WeatherDisplay:10.37,2013-04-01 15:49:00,
2013-04-01 11:54:00,47.0,35.9,29.58,SSE,159,0.0,2.0,65,0.00,FEW,,0.29,WeatherDisplay:10.37,2013-04-01 15:54:00,
2013-04-01 11:59:00,46.8,35.7,29.58,ESE,109,0.0,6.0,65,0.00,FEW,,0.29,WeatherDisplay:10.37,2013-04-01 15:59:00,
2013-04-01 12:04:00,49.2,37.1,29.57,East,95,0.0,0.0,63,0.00,BKN,,0.29,WeatherDisplay:10.37,2013-04-01 16:04:00,
2013-04-01 12:09:00,49.2,37.1,29.57,East,91,1.1,0.0,63,0.00,BKN,,0.29,WeatherDisplay:10.37,2013-04-01 16:09:00,
2013-04-01 12:14:00,50.7,38.6,29.57,East,92,2.3,2.3,63,0.00,BKN,,0.29,WeatherDisplay:10.37,2013-04-01 16:14:00,
2013-04-01 12:20:00,51.7,39.5,29.57,East,99,2.3,2.3,63,0.00,BKN,,0.29,WeatherDisplay:10.37,2013-04-01 16:20:00,
2013-04-01 12:25:00,50.6,37.6,29.56,South,171,3.5,3.5,61,0.00,SCT,,0.29,WeatherDisplay:10.37,2013-04-01 16:25:00,
2013-04-01 12:30:00,50.5,37.5,29.56,South,177,3.5,3.5,61,0.00,SCT,,0.29,WeatherDisplay:10.37,2013-04-01 16:30:00,
2013-04-01 12:35:00,49.6,36.7,29.56,SE,140,1.1,1.1,61,0.00,SCT,,0.29,WeatherDisplay:10.37,2013-04-01 16:35:00,
2013-04-01 12:40:00,49.7,36.8,29.56,SE,142,2.3,2.3,61,0.00,SCT,,0.29,WeatherDisplay:10.37,2013-04-01 16:40:00,
2013-04-01 12:45:00,48.6,35.7,29.56,SSE,159,2.3,0.0,61,0.00,SCT,,0.29,WeatherDisplay:10.37,2013-04-01 16:45:00,
2013-04-01 12:50:00,49.5,36.6,29.56,SSE,159,1.1,1.1,61,0.00,SCT,,0.29,WeatherDisplay:10.37,2013-04-01 16:50:00,
2013-04-01 12:55:00,48.5,35.7,29.56,SSE,159,1.1,1.1,61,0.00,SCT,,0.29,WeatherDisplay:10.37,2013-04-01 16:55:00,
2013-04-01 13:00:00,48.6,35.7,29.56,SSE,158,1.1,0.0,61,0.00,SCT,,0.29,WeatherDisplay:10.37,2013-04-01 17:00:00,
2013-04-01 13:05:00,47.3,31.5,29.54,SE,145,1.1,1.1,54,0.00,BKN,,0.29,WeatherDisplay:10.37,2013-04-01 17:05:00,
2013-04-01 13:10:00,48.2,32.3,29.54,SE,145,2.3,2.3,54,0.00,BKN,,0.29,WeatherDisplay:10.37,2013-04-01 17:10:00,
2013-04-01 13:15:00,47.9,32.0,29.54,SE,145,2.3,2.3,54,0.00,BKN,,0.29,WeatherDisplay:10.37,2013-04-01 17:15:00,
2013-04-01 13:20:00,48.9,33.0,29.54,SE,145,0.0,0.0,54,0.00,BKN,,0.29,WeatherDisplay:10.37,2013-04-01 17:20:00,
2013-04-01 13:25:00,48.5,32.6,29.54,SE,145,0.0,0.0,54,0.00,BKN,,0.29,WeatherDisplay:10.37,2013-04-01 17:25:00,
2013-04-01 13:30:00,50.1,34.1,29.54,SE,145,0.0,0.0,54,0.00,BKN,,0.29,WeatherDisplay:10.37,2013-04-01 17:30:00,
2013-04-01 13:35:00,50.3,34.3,29.54,SE,145,2.3,2.3,54,0.00,BKN,,0.29,WeatherDisplay:10.37,2013-04-01 17:35:00,
2013-04-01 13:40:00,52.8,36.6,29.54,SE,145,1.1,1.1,54,0.00,BKN,,0.29,WeatherDisplay:10.37,2013-04-01 17:40:00,
2013-04-01 13:45:00,51.7,35.6,29.54,SSE,150,3.5,3.5,54,0.00,BKN,,0.29,WeatherDisplay:10.37,2013-04-01 17:45:00,
2013-04-01 13:50:00,52.4,36.2,29.54,SSE,161,2.3,2.3,54,0.00,BKN,,0.29,WeatherDisplay:10.37,2013-04-01 17:50:00,
2013-04-01 13:55:00,52.3,36.1,29.54,SSE,161,3.5,3.5,54,0.00,BKN,,0.29,WeatherDisplay:10.37,2013-04-01 17:55:00,
2013-04-01 14:00:00,53.7,37.4,29.54,SSE,159,2.3,2.3,54,0.00,BKN,,0.29,WeatherDisplay:10.37,2013-04-01 18:00:00,
2013-04-01 14:05:00,54.2,35.9,29.52,SSE,156,3.5,3.5,50,0.00,OVC,,0.29,WeatherDisplay:10.37,2013-04-01 18:05:00,
2013-04-01 14:10:00,52.5,34.4,29.52,SSE,164,3.5,3.5,50,0.00,OVC,,0.29,WeatherDisplay:10.37,2013-04-01 18:10:00,
2013-04-01 14:15:00,51.9,33.8,29.52,SW,224,2.0,2.0,50,0.00,OVC,,0.29,WeatherDisplay:10.37,2013-04-01 18:15:00,
2013-04-01 14:20:00,51.1,33.1,29.52,SE,145,1.1,1.1,50,0.00,OVC,,0.29,WeatherDisplay:10.37,2013-04-01 18:20:00,
2013-04-01 14:25:00,50.8,32.8,29.52,SSE,151,3.5,3.5,50,0.00,OVC,,0.29,WeatherDisplay:10.37,2013-04-01 18:25:00,
2013-04-01 14:30:00,50.6,32.6,29.52,South,185,3.5,3.5,50,0.00,OVC,,0.29,WeatherDisplay:10.37,2013-04-01 18:30:00,
2013-04-01 14:35:00,50.7,32.7,29.52,South,190,1.0,1.0,50,0.00,OVC,,0.29,WeatherDisplay:10.37,2013-04-01 18:35:00,
2013-04-01 14:40:00,50.4,32.4,29.52,SSW,207,3.5,3.5,50,0.00,OVC,,0.29,WeatherDisplay:10.37,2013-04-01 18:40:00,
2013-04-01 14:45:00,43.6,26.2,29.52,WNW,291,13.0,13.0,50,0.00,OVC,,0.29,WeatherDisplay:10.37,2013-04-01 18:45:00,
2013-04-01 14:50:00,41.1,23.9,29.52,WNW,282,5.0,5.0,50,0.00,OVC,,0.29,WeatherDisplay:10.37,2013-04-01 18:50:00,
2013-04-01 14:55:00,40.9,23.7,29.52,West,277,4.6,4.6,50,0.01,RA,,0.30,WeatherDisplay:10.37,2013-04-01 18:55:00,
2013-04-01 15:00:00,40.9,23.7,29.52,West,275,3.5,3.5,50,0.01,OVC,,0.30,WeatherDisplay:10.37,2013-04-01 19:00:00,
2013-04-01 15:05:00,40.9,22.2,29.49,WSW,256,5.8,5.8,47,0.02,RA,,0.31,WeatherDisplay:10.37,2013-04-01 19:05:00,
2013-04-01 15:10:00,41.2,22.5,29.49,WSW,258,2.3,2.3,47,0.02,BKN,,0.31,WeatherDisplay:10.37,2013-04-01 19:10:00,
2013-04-01 15:15:00,41.5,22.7,29.49,WSW,258,1.1,1.1,47,0.02,BKN,,0.31,WeatherDisplay:10.37,2013-04-01 19:15:00,
2013-04-01 15:20:00,41.8,23.0,29.49,WSW,258,2.3,2.3,47,0.02,BKN,,0.31,WeatherDisplay:10.37,2013-04-01 19:20:00,
2013-04-01 15:25:00,41.7,34.4,29.53,WSW,257,0.0,0.0,75,0.02,-RA,,0.31,WeatherDisplay:10.37,2013-04-01 19:25:00,
2013-04-01 15:30:00,41.7,34.4,29.53,WSW,258,0.0,0.0,75,0.02,-RA,,0.31,WeatherDisplay:10.37,2013-04-01 19:30:00,
2013-04-01 15:35:00,41.8,34.5,29.53,WSW,257,0.0,0.0,75,0.02,-RA,,0.31,WeatherDisplay:10.37,2013-04-01 19:35:00,
2013-04-01 15:40:00,42.3,34.9,29.53,WSW,258,1.1,1.1,75,0.02,-RA,,0.31,WeatherDisplay:10.37,2013-04-01 19:40:00,
2013-04-01 15:45:00,42.6,35.2,29.53,WSW,258,1.1,1.1,75,0.02,-RA,,0.31,WeatherDisplay:10.37,2013-04-01 19:45:00,
2013-04-01 15:50:00,42.4,35.0,29.53,WSW,258,1.1,0.0,75,0.02,-RA,,0.31,WeatherDisplay:10.37,2013-04-01 19:50:00,
2013-04-01 15:55:00,42.4,35.0,29.53,WSW,258,1.1,1.1,75,0.01,-RA,,0.31,WeatherDisplay:10.37,2013-04-01 19:55:00,
2013-04-01 16:00:00,42.3,34.9,29.53,WSW,258,1.1,1.1,75,0.01,-RA,,0.31,WeatherDisplay:10.37,2013-04-01 20:00:00,
2013-04-01 16:05:00,42.2,35.2,29.54,WSW,258,1.1,0.0,76,0.00,-RA,,0.31,WeatherDisplay:10.37,2013-04-01 20:05:00,
2013-04-01 16:10:00,42.4,35.4,29.54,WSW,257,0.0,0.0,76,0.00,-RA,,0.31,WeatherDisplay:10.37,2013-04-01 20:10:00,
2013-04-01 16:15:00,42.4,35.4,29.54,WSW,254,4.6,4.6,76,0.00,-RA,,0.31,WeatherDisplay:10.37,2013-04-01 20:15:00,
2013-04-01 16:20:00,42.8,35.8,29.54,WSW,254,1.1,1.1,76,0.00,-RA,,0.31,WeatherDisplay:10.37,2013-04-01 20:20:00,
2013-04-01 16:25:00,43.8,36.7,29.54,WSW,254,2.3,2.3,76,0.00,-RA,,0.31,WeatherDisplay:10.37,2013-04-01 20:25:00,
2013-04-01 16:30:00,43.6,36.5,29.54,WSW,254,1.1,1.1,76,0.00,-RA,,0.31,WeatherDisplay:10.37,2013-04-01 20:30:00,
2013-04-01 16:35:00,42.7,35.7,29.54,WSW,254,2.3,2.3,76,0.00,-RA,,0.31,WeatherDisplay:10.37,2013-04-01 20:35:00,
2013-04-01 16:40:00,42.2,35.2,29.54,West,266,3.5,3.5,76,0.00,-RA,,0.31,WeatherDisplay:10.37,2013-04-01 20:40:00,
2013-04-01 16:45:00,41.7,34.7,29.54,NW,309,6.9,6.9,76,0.00,-RA,,0.31,WeatherDisplay:10.37,2013-04-01 20:45:00,
2013-04-01 16:50:00,41.0,34.0,29.54,WNW,284,4.6,4.6,76,0.00,-RA,,0.31,WeatherDisplay:10.37,2013-04-01 20:50:00,
2013-04-01 16:55:00,40.6,33.6,29.54,WNW,286,5.8,5.8,76,0.00,-RA,,0.31,WeatherDisplay:10.37,2013-04-01 20:55:00,
2013-04-01 17:00:00,40.4,33.4,29.54,WNW,286,5.8,5.8,76,0.00,-RA,,0.31,WeatherDisplay:10.37,2013-04-01 21:00:00,
2013-04-01 17:05:00,40.3,30.6,29.54,West,262,3.5,3.5,68,0.00,BKN,,0.31,WeatherDisplay:10.37,2013-04-01 21:05:00,
2013-04-01 17:10:00,40.3,30.6,29.54,WSW,253,4.6,4.6,68,0.00,BKN,,0.31,WeatherDisplay:10.37,2013-04-01 21:10:00,
2013-04-01 17:15:00,40.3,30.6,29.54,NW,323,3.0,3.0,68,0.00,BKN,,0.31,WeatherDisplay:10.37,2013-04-01 21:15:00,
2013-04-01 17:20:00,40.7,31.0,29.54,NW,304,2.3,2.3,68,0.00,BKN,,0.31,WeatherDisplay:10.37,2013-04-01 21:20:00,
2013-04-01 17:25:00,41.0,31.2,29.54,NW,304,2.3,2.3,68,0.00,BKN,,0.31,WeatherDisplay:10.37,2013-04-01 21:25:00,
2013-04-01 17:30:00,41.3,31.5,29.54,NW,304,1.1,1.1,68,0.00,BKN,,0.31,WeatherDisplay:10.37,2013-04-01 21:30:00,
2013-04-01 17:35:00,41.5,31.7,29.54,NW,304,2.3,2.3,68,0.00,BKN,,0.31,WeatherDisplay:10.37,2013-04-01 21:35:00,
2013-04-01 17:40:00,41.4,31.6,29.54,WNW,285,3.5,3.5,68,0.00,BKN,,0.31,WeatherDisplay:10.37,2013-04-01 21:40:00,
2013-04-01 17:45:00,41.3,31.5,29.54,WNW,286,4.6,4.6,68,0.00,BKN,,0.31,WeatherDisplay:10.37,2013-04-01 21:45:00,
2013-04-01 17:50:00,41.9,32.1,29.54,WNW,287,3.0,3.0,68,0.00,BKN,,0.31,WeatherDisplay:10.37,2013-04-01 21:50:00,
2013-04-01 17:55:00,41.4,31.6,29.54,West,274,5.8,5.8,68,0.00,BKN,,0.31,WeatherDisplay:10.37,2013-04-01 21:55:00,
2013-04-01 18:00:00,41.2,31.4,29.54,WNW,301,10.4,10.4,68,0.00,BKN,,0.31,WeatherDisplay:10.37,2013-04-01 22:00:00,
2013-04-01 18:05:00,40.8,25.9,29.60,WNW,293,5.8,5.8,55,0.00,OVC,,0.31,WeatherDisplay:10.37,2013-04-01 22:05:00,
2013-04-01 18:10:00,40.6,25.7,29.60,WNW,282,5.0,5.0,55,0.00,OVC,,0.31,WeatherDisplay:10.37,2013-04-01 22:10:00,
2013-04-01 18:15:00,39.9,25.0,29.60,WNW,297,8.1,8.1,55,0.00,OVC,,0.31,WeatherDisplay:10.37,2013-04-01 22:15:00,
2013-04-01 18:20:00,39.0,24.2,29.60,West,268,11.5,11.5,55,0.00,OVC,,0.31,WeatherDisplay:10.37,2013-04-01 22:20:00,
2013-04-01 18:25:00,38.6,23.8,29.60,NW,318,7.0,7.0,55,0.00,OVC,,0.31,WeatherDisplay:10.37,2013-04-01 22:25:00,
2013-04-01 18:30:00,37.3,22.6,29.60,WNW,297,13.8,13.8,55,0.00,OVC,,0.31,WeatherDisplay:10.37,2013-04-01 22:30:00,
2013-04-01 18:35:00,36.7,22.0,29.60,NW,307,12.7,12.7,55,0.00,OVC,,0.31,WeatherDisplay:10.37,2013-04-01 22:35:00,
2013-04-01 18:40:00,36.4,21.8,29.60,WNW,294,12.7,12.7,55,0.00,OVC,,0.31,WeatherDisplay:10.37,2013-04-01 22:40:00,
2013-04-01 18:45:00,36.2,21.6,29.60,WNW,299,9.2,9.2,55,0.00,OVC,,0.31,WeatherDisplay:10.37,2013-04-01 22:45:00,
2013-04-01 18:50:00,36.1,21.5,29.60,WNW,284,8.1,8.1,55,0.00,OVC,,0.31,WeatherDisplay:10.37,2013-04-01 22:50:00,
2013-04-01 18:55:00,36.0,21.4,29.60,WNW,296,10.4,10.4,55,0.00,OVC,,0.31,WeatherDisplay:10.37,2013-04-01 22:55:00,
2013-04-01 19:00:00,35.7,21.1,29.60,NW,306,4.0,4.0,55,0.00,OVC,,0.31,WeatherDisplay:10.37,2013-04-01 23:00:00,
2013-04-01 19:05:00,35.7,13.7,29.64,NW,306,6.9,6.9,40,0.00,OVC,,0.31,WeatherDisplay:10.37,2013-04-01 23:05:00,
2013-04-01 19:10:00,35.5,13.5,29.64,NW,309,5.0,5.0,40,0.00,OVC,,0.31,WeatherDisplay:10.37,2013-04-01 23:10:00,
2013-04-01 19:15:00,35.3,13.3,29.64,NW,308,3.5,3.5,40,0.00,OVC,,0.31,WeatherDisplay:10.37,2013-04-01 23:15:00,
2013-04-01 19:20:00,35.2,13.3,29.64,NW,308,3.0,3.0,40,0.00,OVC,,0.31,WeatherDisplay:10.37,2013-04-01 23:20:00,
2013-04-01 19:25:00,35.0,13.1,29.64,NW,308,3.0,3.0,40,0.00,OVC,,0.31,WeatherDisplay:10.37,2013-04-01 23:25:00,
2013-04-01 19:30:00,34.9,13.0,29.64,NW,307,3.5,3.5,40,0.00,OVC,,0.31,WeatherDisplay:10.37,2013-04-01 23:30:00,
2013-04-01 19:35:00,34.9,13.0,29.64,NW,319,8.1,8.1,40,0.00,OVC,,0.31,WeatherDisplay:10.37,2013-04-01 23:35:00,
2013-04-01 19:40:00,34.6,12.7,29.64,WNW,291,6.9,6.9,40,0.00,OVC,,0.31,WeatherDisplay:10.37,2013-04-01 23:40:00,
2013-04-01 19:45:00,34.3,12.4,29.64,NW,305,6.0,6.0,40,0.00,OVC,,0.31,WeatherDisplay:10.37,2013-04-01 23:45:00,
2013-04-01 19:50:00,34.3,12.4,29.64,WNW,284,5.8,5.8,40,0.00,OVC,,0.31,WeatherDisplay:10.37,2013-04-01 23:50:00,
2013-04-01 19:55:00,34.2,12.4,29.64,WNW,299,4.6,4.6,40,0.00,OVC,,0.31,WeatherDisplay:10.37,2013-04-01 23:55:00,
2013-04-01 20:00:00,34.1,12.3,29.64,WNW,292,6.0,6.0,40,0.00,OVC,,0.31,WeatherDisplay:10.37,2013-04-02 00:00:00,
2013-04-01 20:05:00,34.2,8.0,29.67,NW,313,9.2,9.2,33,0.00,CLR,,0.31,WeatherDisplay:10.37,2013-04-02 00:05:00,
2013-04-01 20:10:00,33.9,7.8,29.67,NW,306,8.1,8.1,33,0.00,CLR,,0.31,WeatherDisplay:10.37,2013-04-02 00:10:00,
2013-04-01 20:15:00,33.8,7.7,29.67,WNW,283,6.9,6.9,33,0.00,CLR,,0.31,WeatherDisplay:10.37,2013-04-02 00:15:00,
2013-04-01 20:20:00,33.7,7.6,29.67,WNW,303,5.8,5.8,33,0.00,CLR,,0.31,WeatherDisplay:10.37,2013-04-02 00:20:00,
2013-04-01 20:25:00,33.5,7.4,29.67,WNW,295,5.0,5.0,33,0.00,CLR,,0.31,WeatherDisplay:10.37,2013-04-02 00:25:00,
2013-04-01 20:30:00,33.4,7.3,29.67,WNW,302,4.6,4.9,33,0.00,CLR,,0.31,WeatherDisplay:10.37,2013-04-02 00:30:00,
2013-04-01 20:35:00,32.8,6.8,29.67,West,274,6.0,6.0,33,0.00,CLR,,0.31,WeatherDisplay:10.37,2013-04-02 00:35:00,
2013-04-01 20:40:00,33.0,7.0,29.67,NW,315,3.5,3.5,33,0.00,CLR,,0.31,WeatherDisplay:10.37,2013-04-02 00:40:00,
2013-04-01 20:45:00,33.3,7.2,29.67,WNW,296,11.5,11.5,33,0.00,CLR,,0.31,WeatherDisplay:10.37,2013-04-02 00:45:00,
2013-04-01 20:50:00,33.0,7.0,29.67,WNW,287,8.1,8.1,33,0.00,CLR,,0.31,WeatherDisplay:10.37,2013-04-02 00:50:00,
2013-04-01 20:55:00,32.6,6.6,29.67,WNW,288,9.2,9.2,33,0.00,CLR,,0.31,WeatherDisplay:10.37,2013-04-02 00:55:00,
2013-04-01 21:00:00,32.3,6.4,29.67,WNW,290,5.0,5.0,33,0.00,CLR,,0.31,WeatherDisplay:10.37,2013-04-02 01:00:00,
2013-04-01 21:05:00,32.1,4.1,29.70,WNW,289,4.6,4.6,30,0.00,CLR,,0.31,WeatherDisplay:10.37,2013-04-02 01:05:00,
2013-04-01 21:10:00,32.2,4.2,29.70,NW,308,8.1,8.8,30,0.00,CLR,,0.31,WeatherDisplay:10.37,2013-04-02 01:10:00,
2013-04-01 21:15:00,31.9,3.9,29.70,West,262,8.1,8.1,30,0.00,CLR,,0.31,WeatherDisplay:10.37,2013-04-02 01:15:00,
2013-04-01 21:20:00,31.9,3.9,29.70,WNW,285,10.4,10.4,30,0.00,CLR,,0.31,WeatherDisplay:10.37,2013-04-02 01:20:00,
2013-04-01 21:25:00,31.6,3.7,29.70,WNW,283,11.5,11.5,30,0.00,CLR,,0.31,WeatherDisplay:10.37,2013-04-02 01:25:00,
2013-04-01 21:30:00,31.2,3.3,29.70,NW,318,10.4,10.4,30,0.00,CLR,,0.31,WeatherDisplay:10.37,2013-04-02 01:30:00,
2013-04-01 21:35:00,31.0,3.1,29.70,West,274,10.4,10.4,30,0.00,CLR,,0.31,WeatherDisplay:10.37,2013-04-02 01:35:00,
2013-04-01 21:40:00,30.7,2.9,29.70,WNW,290,10.4,10.4,30,0.00,CLR,,0.31,WeatherDisplay:10.37,2013-04-02 01:40:00,
2013-04-01 21:45:00,30.4,2.6,29.70,WNW,285,11.5,11.5,30,0.00,CLR,,0.31,WeatherDisplay:10.37,2013-04-02 01:45:00,
2013-04-01 21:50:00,30.2,2.4,29.70,WNW,284,8.1,8.1,30,0.00,CLR,,0.31,WeatherDisplay:10.37,2013-04-02 01:50:00,
2013-04-01 21:55:00,30.1,2.3,29.70,WNW,284,9.2,9.2,30,0.00,CLR,,0.31,WeatherDisplay:10.37,2013-04-02 01:55:00,
2013-04-01 22:00:00,29.8,2.1,29.70,West,281,5.0,5.0,30,0.00,CLR,,0.31,WeatherDisplay:10.37,2013-04-02 02:00:00,
2013-04-01 22:05:00,29.9,4.2,29.72,WNW,283,9.2,9.2,33,0.00,CLR,,0.31,WeatherDisplay:10.37,2013-04-02 02:05:00,
2013-04-01 22:10:00,29.8,4.1,29.72,WNW,286,10.0,10.0,33,0.00,CLR,,0.31,WeatherDisplay:10.37,2013-04-02 02:10:00,
2013-04-01 22:15:00,29.8,4.1,29.72,WNW,296,6.9,6.9,33,0.00,CLR,,0.31,WeatherDisplay:10.37,2013-04-02 02:15:00,
2013-04-01 22:20:00,29.7,4.1,29.72,WNW,287,10.4,10.4,33,0.00,CLR,,0.31,WeatherDisplay:10.37,2013-04-02 02:20:00,
2013-04-01 22:25:00,29.6,4.0,29.72,WNW,300,8.1,8.1,33,0.00,CLR,,0.31,WeatherDisplay:10.37,2013-04-02 02:25:00,
2013-04-01 22:30:00,29.3,3.7,29.72,West,281,8.1,8.1,33,0.00,CLR,,0.31,WeatherDisplay:10.37,2013-04-02 02:30:00,
2013-04-01 22:35:00,29.2,3.6,29.72,WSW,249,5.8,5.8,33,0.00,CLR,,0.31,WeatherDisplay:10.37,2013-04-02 02:35:00,
2013-04-01 22:40:00,29.0,3.4,29.72,West,269,4.6,4.6,33,0.00,CLR,,0.31,WeatherDisplay:10.37,2013-04-02 02:40:00,
2013-04-01 22:45:00,29.1,3.5,29.72,West,268,3.5,3.5,33,0.00,CLR,,0.31,WeatherDisplay:10.37,2013-04-02 02:45:00,
2013-04-01 22:50:00,29.1,3.5,29.72,WNW,285,8.1,8.1,33,0.00,CLR,,0.31,WeatherDisplay:10.37,2013-04-02 02:50:00,
2013-04-01 22:55:00,29.0,3.4,29.72,WNW,282,6.9,6.9,33,0.00,CLR,,0.31,WeatherDisplay:10.37,2013-04-02 02:55:00,
2013-04-01 23:00:00,28.8,3.3,29.72,WNW,297,5.8,5.8,33,0.00,CLR,,0.31,WeatherDisplay:10.37,2013-04-02 03:00:00,
2013-04-01 23:05:00,28.7,7.4,29.75,WNW,289,5.0,5.0,40,0.00,CLR,,0.31,WeatherDisplay:10.37,2013-04-02 03:05:00,
2013-04-01 23:10:00,28.6,7.3,29.75,West,279,3.5,3.5,40,0.00,CLR,,0.31,WeatherDisplay:10.37,2013-04-02 03:10:00,
2013-04-01 23:15:00,28.8,7.5,29.75,WNW,287,5.8,5.8,40,0.00,CLR,,0.31,WeatherDisplay:10.37,2013-04-02 03:15:00,
2013-04-01 23:20:00,28.6,7.3,29.75,WNW,292,6.0,6.0,40,0.00,CLR,,0.31,WeatherDisplay:10.37,2013-04-02 03:20:00,
2013-04-01 23:25:00,28.6,7.3,29.75,West,278,8.1,8.1,40,0.00,CLR,,0.31,WeatherDisplay:10.37,2013-04-02 03:25:00,
2013-04-01 23:30:00,28.4,7.1,29.75,WNW,292,3.5,3.5,40,0.00,CLR,,0.31,WeatherDisplay:10.37,2013-04-02 03:30:00,
2013-04-01 23:35:00,28.3,7.0,29.75,West,279,3.5,3.5,40,0.00,CLR,,0.31,WeatherDisplay:10.37,2013-04-02 03:35:00,
2013-04-01 23:40:00,28.3,7.0,29.75,WNW,301,5.8,5.8,40,0.00,CLR,,0.31,WeatherDisplay:10.37,2013-04-02 03:40:00,
2013-04-01 23:45:00,28.3,7.0,29.75,WNW,299,5.8,5.8,40,0.00,CLR,,0.31,WeatherDisplay:10.37,2013-04-02 03:45:00,
2013-04-01 23:50:00,28.1,6.8,29.75,NW,309,4.6,4.6,40,0.00,CLR,,0.31,WeatherDisplay:10.37,2013-04-02 03:50:00,
2013-04-01 23:55:00,28.2,6.9,29.75,NW,304,6.9,6.9,40,0.00,CLR,,0.31,WeatherDisplay:10.37,2013-04-02 03:55:00,